Current Weather

DuPage County

West Chicago, Illinois (KDPA)

Report from: Saturday, July 13, 2024 7:52 PM CDT
Current time: Saturday, July 13, 2024 8:04 PM CDT

Nearby weather – Weather history – Daily summaries
Weather forecast

Temperature25.0°C (77.0°F)
Dew point20.0°C (68.0°F)
Winds 8 kts (4.1 m/s, 9.2 mph) South-Southeast (160°)
Visibility10 mi. (16.1 km)
Clouds Sky clear
Altimeter30.03 in.Hg (1017 mB)
Relative humidity74 %
Density altitude1,376 ft. (419 m)
Sea-level pressure101.6 kPa (1016 mB, 30.01 in.Hg)
Remarks Automated weather observing station with precipitation discriminator
Flight conditions Visual Meteorological Conditions
Raw dataKDPA 140052Z 16008KT 10SM CLR 25/20 A3003 RMK AO2 SLP162 T02500200
An error has occurred. This application may no longer respond until reloaded. Reload 🗙